sensor_id;sensor_type;location;lat;lon;timestamp;temperature;humidity
74220;DHT22;62580;54.416;11.120;2022-08-18T00:02:42;26.10;64.20
74220;DHT22;62580;54.416;11.120;2022-08-18T00:12:45;26.10;64.10
74220;DHT22;62580;54.416;11.120;2022-08-18T00:22:46;26.10;64.20
74220;DHT22;62580;54.416;11.120;2022-08-18T00:32:51;26.10;64.10
74220;DHT22;62580;54.416;11.120;2022-08-18T00:42:54;26.10;63.90
74220;DHT22;62580;54.416;11.120;2022-08-18T00:52:59;26.10;64.00
74220;DHT22;62580;54.416;11.120;2022-08-18T01:03:05;26.10;64.00
74220;DHT22;62580;54.416;11.120;2022-08-18T01:13:10;26.10;64.00
74220;DHT22;62580;54.416;11.120;2022-08-18T01:23:14;26.10;63.90
74220;DHT22;62580;54.416;11.120;2022-08-18T01:33:17;26.10;63.90
74220;DHT22;62580;54.416;11.120;2022-08-18T01:43:20;26.10;63.90
74220;DHT22;62580;54.416;11.120;2022-08-18T01:53:20;26.10;63.70
74220;DHT22;62580;54.416;11.120;2022-08-18T02:03:25;26.10;63.80
74220;DHT22;62580;54.416;11.120;2022-08-18T02:13:27;26.00;63.60
74220;DHT22;62580;54.416;11.120;2022-08-18T02:23:30;26.00;63.60
74220;DHT22;62580;54.416;11.120;2022-08-18T02:33:31;26.00;63.60
74220;DHT22;62580;54.416;11.120;2022-08-18T02:43:33;26.00;63.60
74220;DHT22;62580;54.416;11.120;2022-08-18T02:53:34;26.00;63.50
74220;DHT22;62580;54.416;11.120;2022-08-18T03:03:36;26.00;63.40
74220;DHT22;62580;54.416;11.120;2022-08-18T03:13:37;26.00;63.40
74220;DHT22;62580;54.416;11.120;2022-08-18T03:23:39;26.00;63.50
74220;DHT22;62580;54.416;11.120;2022-08-18T03:33:40;26.00;63.40
74220;DHT22;62580;54.416;11.120;2022-08-18T03:43:42;26.00;63.40
74220;DHT22;62580;54.416;11.120;2022-08-18T03:53:44;26.00;63.40
74220;DHT22;62580;54.416;11.120;2022-08-18T04:03:48;26.00;63.40
74220;DHT22;62580;54.416;11.120;2022-08-18T04:13:50;26.00;63.40
74220;DHT22;62580;54.416;11.120;2022-08-18T04:23:52;26.00;63.40
74220;DHT22;62580;54.416;11.120;2022-08-18T04:33:52;25.90;63.30
74220;DHT22;62580;54.416;11.120;2022-08-18T04:43:57;25.90;63.30
74220;DHT22;62580;54.416;11.120;2022-08-18T04:53:58;26.00;63.30
74220;DHT22;62580;54.416;11.120;2022-08-18T05:04:00;25.90;63.30
74220;DHT22;62580;54.416;11.120;2022-08-18T05:14:02;25.90;63.30
74220;DHT22;62580;54.416;11.120;2022-08-18T05:24:05;25.90;63.20
74220;DHT22;62580;54.416;11.120;2022-08-18T05:34:05;25.90;63.20
74220;DHT22;62580;54.416;11.120;2022-08-18T05:44:11;25.90;63.10
74220;DHT22;62580;54.416;11.120;2022-08-18T05:54:13;26.00;63.30
74220;DHT22;62580;54.416;11.120;2022-08-18T06:04:25;26.00;63.90
74220;DHT22;62580;54.416;11.120;2022-08-18T06:14:26;25.80;62.10
74220;DHT22;62580;54.416;11.120;2022-08-18T06:24:32;25.60;62.20
74220;DHT22;62580;54.416;11.120;2022-08-18T06:34:40;25.40;62.60
74220;DHT22;62580;54.416;11.120;2022-08-18T06:44:46;25.60;62.70
74220;DHT22;62580;54.416;11.120;2022-08-18T06:54:49;25.60;63.40
74220;DHT22;62580;54.416;11.120;2022-08-18T07:05:03;25.60;63.40
74220;DHT22;62580;54.416;11.120;2022-08-18T07:15:05;25.50;63.40
74220;DHT22;62580;54.416;11.120;2022-08-18T07:25:20;25.50;63.60
74220;DHT22;62580;54.416;11.120;2022-08-18T07:35:27;25.40;64.10
74220;DHT22;62580;54.416;11.120;2022-08-18T07:45:35;25.30;64.80
74220;DHT22;62580;54.416;11.120;2022-08-18T07:55:41;25.30;65.20
74220;DHT22;62580;54.416;11.120;2022-08-18T08:05:53;25.30;66.10
74220;DHT22;62580;54.416;11.120;2022-08-18T08:16:02;25.20;66.70
74220;DHT22;62580;54.416;11.120;2022-08-18T08:26:23;25.30;67.30
74220;DHT22;62580;54.416;11.120;2022-08-18T08:36:30;25.40;68.00
74220;DHT22;62580;54.416;11.120;2022-08-18T08:46:41;25.40;68.10
74220;DHT22;62580;54.416;11.120;2022-08-18T08:56:45;25.40;68.00
74220;DHT22;62580;54.416;11.120;2022-08-18T09:07:01;25.40;68.00
74220;DHT22;62580;54.416;11.120;2022-08-18T09:17:15;25.40;68.00
74220;DHT22;62580;54.416;11.120;2022-08-18T09:27:40;25.50;67.50
74220;DHT22;62580;54.416;11.120;2022-08-18T09:37:48;25.50;67.10
74220;DHT22;62580;54.416;11.120;2022-08-18T09:47:59;25.50;67.60
74220;DHT22;62580;54.416;11.120;2022-08-18T09:58:14;25.60;67.90
74220;DHT22;62580;54.416;11.120;2022-08-18T10:19:14;25.70;66.60
74220;DHT22;62580;54.416;11.120;2022-08-18T10:29:48;25.70;65.80
74220;DHT22;62580;54.416;11.120;2022-08-18T10:39:53;25.80;66.40
74220;DHT22;62580;54.416;11.120;2022-08-18T10:49:55;25.80;66.20
74220;DHT22;62580;54.416;11.120;2022-08-18T11:00:04;25.90;66.00
74220;DHT22;62580;54.416;11.120;2022-08-18T11:10:16;25.90;65.80
74220;DHT22;62580;54.416;11.120;2022-08-18T11:20:21;26.00;65.60
74220;DHT22;62580;54.416;11.120;2022-08-18T11:30:27;26.00;65.60
74220;DHT22;62580;54.416;11.120;2022-08-18T11:40:41;26.00;65.50
74220;DHT22;62580;54.416;11.120;2022-08-18T11:50:48;26.00;65.30
74220;DHT22;62580;54.416;11.120;2022-08-18T12:00:55;26.00;65.40
74220;DHT22;62580;54.416;11.120;2022-08-18T12:11:05;26.10;65.30
74220;DHT22;62580;54.416;11.120;2022-08-18T12:21:08;26.00;65.20
74220;DHT22;62580;54.416;11.120;2022-08-18T12:31:09;26.10;65.20
74220;DHT22;62580;54.416;11.120;2022-08-18T12:41:11;26.10;65.10
74220;DHT22;62580;54.416;11.120;2022-08-18T12:51:13;26.10;65.00
74220;DHT22;62580;54.416;11.120;2022-08-18T13:01:16;26.10;65.00
74220;DHT22;62580;54.416;11.120;2022-08-18T13:11:18;26.10;65.00
74220;DHT22;62580;54.416;11.120;2022-08-18T13:21:20;26.10;65.00
74220;DHT22;62580;54.416;11.120;2022-08-18T13:31:20;26.10;65.20
74220;DHT22;62580;54.416;11.120;2022-08-18T13:41:22;26.20;65.10
74220;DHT22;62580;54.416;11.120;2022-08-18T13:51:24;26.20;65.00
74220;DHT22;62580;54.416;11.120;2022-08-18T14:01:26;26.20;65.00
74220;DHT22;62580;54.416;11.120;2022-08-18T14:11:29;26.20;65.00
74220;DHT22;62580;54.416;11.120;2022-08-18T14:21:32;26.20;65.10
74220;DHT22;62580;54.416;11.120;2022-08-18T14:31:32;26.20;65.10
74220;DHT22;62580;54.416;11.120;2022-08-18T14:41:34;26.20;65.10
74220;DHT22;62580;54.416;11.120;2022-08-18T14:51:35;26.20;65.10
74220;DHT22;62580;54.416;11.120;2022-08-18T15:01:37;26.30;65.20
74220;DHT22;62580;54.416;11.120;2022-08-18T15:11:38;26.30;65.20
74220;DHT22;62580;54.416;11.120;2022-08-18T15:21:40;26.20;65.30
74220;DHT22;62580;54.416;11.120;2022-08-18T15:31:41;26.20;65.40
74220;DHT22;62580;54.416;11.120;2022-08-18T15:41:44;26.20;65.50
74220;DHT22;62580;54.416;11.120;2022-08-18T15:51:45;26.20;65.50
74220;DHT22;62580;54.416;11.120;2022-08-18T16:01:47;26.20;65.50
74220;DHT22;62580;54.416;11.120;2022-08-18T16:11:47;26.20;65.60
74220;DHT22;62580;54.416;11.120;2022-08-18T16:21:49;26.30;65.60
74220;DHT22;62580;54.416;11.120;2022-08-18T16:31:50;26.30;65.50
74220;DHT22;62580;54.416;11.120;2022-08-18T16:41:52;26.30;65.50
74220;DHT22;62580;54.416;11.120;2022-08-18T16:51:53;26.30;65.50
74220;DHT22;62580;54.416;11.120;2022-08-18T17:01:55;26.30;65.40
74220;DHT22;62580;54.416;11.120;2022-08-18T17:11:56;26.30;65.30
74220;DHT22;62580;54.416;11.120;2022-08-18T17:21:58;26.40;65.40
74220;DHT22;62580;54.416;11.120;2022-08-18T17:32:02;26.30;65.30
74220;DHT22;62580;54.416;11.120;2022-08-18T17:42:05;26.30;65.50
74220;DHT22;62580;54.416;11.120;2022-08-18T17:52:06;26.30;65.50
74220;DHT22;62580;54.416;11.120;2022-08-18T18:02:10;26.30;65.60
74220;DHT22;62580;54.416;11.120;2022-08-18T18:12:20;26.30;65.60
74220;DHT22;62580;54.416;11.120;2022-08-18T18:22:24;26.30;65.60
74220;DHT22;62580;54.416;11.120;2022-08-18T18:32:29;26.20;66.70
74220;DHT22;62580;54.416;11.120;2022-08-18T18:42:34;26.20;69.30
74220;DHT22;62580;54.416;11.120;2022-08-18T18:52:42;26.20;68.10
74220;DHT22;62580;54.416;11.120;2022-08-18T19:02:55;26.20;67.30
74220;DHT22;62580;54.416;11.120;2022-08-18T19:13:00;26.10;66.90
74220;DHT22;62580;54.416;11.120;2022-08-18T19:23:09;26.10;66.10
74220;DHT22;62580;54.416;11.120;2022-08-18T19:33:19;26.10;66.80
74220;DHT22;62580;54.416;11.120;2022-08-18T19:43:31;26.00;66.30
74220;DHT22;62580;54.416;11.120;2022-08-18T19:53:54;26.00;66.70
74220;DHT22;62580;54.416;11.120;2022-08-18T20:04:12;26.00;66.70
74220;DHT22;62580;54.416;11.120;2022-08-18T20:14:18;26.00;66.60
74220;DHT22;62580;54.416;11.120;2022-08-18T20:24:45;26.00;66.70
74220;DHT22;62580;54.416;11.120;2022-08-18T20:34:48;26.10;67.20
74220;DHT22;62580;54.416;11.120;2022-08-18T20:44:55;26.00;66.90
74220;DHT22;62580;54.416;11.120;2022-08-18T20:55:03;26.10;67.30
74220;DHT22;62580;54.416;11.120;2022-08-18T21:05:07;26.10;67.10
74220;DHT22;62580;54.416;11.120;2022-08-18T21:15:09;26.10;67.00
74220;DHT22;62580;54.416;11.120;2022-08-18T21:25:13;26.00;67.00
74220;DHT22;62580;54.416;11.120;2022-08-18T21:35:21;26.00;66.90
74220;DHT22;62580;54.416;11.120;2022-08-18T21:45:23;26.10;66.80
74220;DHT22;62580;54.416;11.120;2022-08-18T21:55:27;26.00;66.80
74220;DHT22;62580;54.416;11.120;2022-08-18T22:05:31;26.00;66.90
74220;DHT22;62580;54.416;11.120;2022-08-18T22:15:38;26.00;67.00
74220;DHT22;62580;54.416;11.120;2022-08-18T22:25:41;26.10;67.60
74220;DHT22;62580;54.416;11.120;2022-08-18T22:35:41;26.00;67.50
74220;DHT22;62580;54.416;11.120;2022-08-18T22:45:44;26.00;67.40
74220;DHT22;62580;54.416;11.120;2022-08-18T22:55:44;26.00;67.50
74220;DHT22;62580;54.416;11.120;2022-08-18T23:05:46;26.00;67.60
74220;DHT22;62580;54.416;11.120;2022-08-18T23:15:47;26.10;67.70
74220;DHT22;62580;54.416;11.120;2022-08-18T23:25:49;26.00;67.70
74220;DHT22;62580;54.416;11.120;2022-08-18T23:35:50;26.00;67.80
74220;DHT22;62580;54.416;11.120;2022-08-18T23:45:52;26.00;67.80
74220;DHT22;62580;54.416;11.120;2022-08-18T23:55:52;26.00;67.60
